Time;durP1;ratioP1;P1;durP2;ratioP2;P2;SDS_P1;SDS_P2;PMS_P1;PMS_P2;Temp;Humidity;BMP_temperature;BMP_pressure;BME280_temperature;BME280_humidity;BME280_pressure;Samples;Min_cycle;Max_cycle;Signal;HPM_P1;HPM_P2
2023/09/17 00:01:17;;;;;;;4.82;1.88;;;38.50;42.20;;;;;;5044179;28;20096;-67
2023/09/17 00:03:44;;;;;;;12.55;2.10;;;38.40;42.00;;;;;;5045172;28;20471;-69
2023/09/17 00:06:10;;;;;;;7.22;1.75;;;38.40;42.30;;;;;;5044371;28;20013;-68
2023/09/17 00:08:38;;;;;;;12.15;2.38;;;38.30;42.40;;;;;;5040730;28;20025;-68
2023/09/17 00:11:04;;;;;;;11.50;2.10;;;38.30;42.40;;;;;;5045464;28;20349;-69
2023/09/17 00:13:31;;;;;;;11.73;2.60;;;38.30;42.70;;;;;;5040612;28;20021;-68
2023/09/17 00:15:58;;;;;;;16.92;2.78;;;38.30;42.50;;;;;;5039778;28;20099;-67
2023/09/17 00:18:25;;;;;;;20.10;2.70;;;38.20;42.00;;;;;;5040545;28;20104;-66
2023/09/17 00:20:51;;;;;;;18.67;2.40;;;38.10;41.90;;;;;;5036101;28;20375;-68
2023/09/17 00:23:18;;;;;;;18.60;3.35;;;38.00;42.10;;;;;;5042787;28;20017;-70
2023/09/17 00:25:44;;;;;;;13.88;2.17;;;37.90;41.80;;;;;;5037392;28;20044;-68
2023/09/17 00:28:11;;;;;;;11.45;2.28;;;37.80;41.90;;;;;;5039555;28;20033;-68
2023/09/17 00:30:37;;;;;;;12.32;2.33;;;37.80;41.80;;;;;;5035097;28;20025;-68
2023/09/17 00:33:04;;;;;;;15.93;2.28;;;37.70;41.50;;;;;;5031648;28;20021;-69
2023/09/17 00:35:30;;;;;;;9.80;2.22;;;37.60;42.30;;;;;;5035974;28;20400;-68
2023/09/17 00:37:57;;;;;;;20.05;2.25;;;37.50;41.70;;;;;;5038033;28;20024;-69
2023/09/17 00:40:28;;;;;;;13.55;2.20;;;37.50;41.70;;;;;;5037814;28;20005;-70
2023/09/17 00:42:55;;;;;;;13.82;2.50;;;37.40;41.80;;;;;;5033132;28;20021;-70
2023/09/17 00:45:21;;;;;;;10.07;1.80;;;37.40;41.30;;;;;;5039336;28;20014;-68
2023/09/17 00:47:48;;;;;;;10.70;1.98;;;37.30;41.30;;;;;;5038784;28;20104;-68
2023/09/17 00:50:14;;;;;;;15.30;2.33;;;37.40;41.20;;;;;;5041656;28;20017;-71
2023/09/17 00:52:41;;;;;;;13.65;2.00;;;37.40;41.30;;;;;;5040511;28;20020;-72
2023/09/17 00:55:08;;;;;;;9.90;2.22;;;37.30;40.80;;;;;;5040403;28;20026;-67
2023/09/17 00:57:37;;;;;;;11.40;2.42;;;37.20;40.90;;;;;;5039533;28;20428;-63
2023/09/17 01:00:05;;;;;;;9.35;1.67;;;37.10;41.10;;;;;;5039641;28;20478;-63
2023/09/17 01:02:36;;;;;;;6.18;2.28;;;37.10;43.10;;;;;;5034762;28;20029;-63
2023/09/17 01:05:04;;;;;;;10.63;3.83;;;37.00;41.90;;;;;;5036800;28;20030;-62
2023/09/17 01:07:36;;;;;;;17.40;2.42;;;36.90;42.40;;;;;;5040125;28;20024;-66
2023/09/17 01:10:04;;;;;;;17.92;2.70;;;37.00;41.80;;;;;;5038500;28;20053;-67
2023/09/17 01:12:31;;;;;;;9.52;2.00;;;36.90;41.80;;;;;;5044855;28;20024;-62
2023/09/17 01:14:58;;;;;;;13.52;2.60;;;36.90;41.90;;;;;;5039467;28;20048;-61
2023/09/17 01:17:27;;;;;;;13.10;2.40;;;36.80;41.50;;;;;;5042163;28;20500;-64
2023/09/17 01:19:55;;;;;;;13.00;2.10;;;36.70;41.80;;;;;;5041229;28;20036;-62
2023/09/17 01:22:35;;;;;;;10.52;2.83;;;36.70;42.00;;;;;;5039751;28;20044;-67
2023/09/17 01:25:14;;;;;;;14.43;3.70;;;36.60;42.30;;;;;;5039856;28;20144;-64
2023/09/17 01:27:41;;;;;;;16.52;3.03;;;36.50;42.90;;;;;;5040911;28;20090;-64
2023/09/17 01:30:15;;;;;;;29.60;3.80;;;36.50;42.60;;;;;;5039318;28;20020;-65
2023/09/17 01:32:45;;;;;;;12.85;2.80;;;36.40;42.30;;;;;;5039342;28;20605;-63
2023/09/17 01:35:17;;;;;;;13.57;2.28;;;36.30;42.30;;;;;;5042050;28;20087;-64
2023/09/17 01:37:49;;;;;;;11.52;2.63;;;36.30;41.70;;;;;;5039504;28;20372;-65
2023/09/17 01:40:17;;;;;;;18.90;2.90;;;36.20;41.60;;;;;;5040521;28;20009;-65
2023/09/17 01:42:48;;;;;;;29.50;3.60;;;36.10;41.20;;;;;;5038919;28;20025;-66
2023/09/17 01:45:16;;;;;;;16.75;2.78;;;36.10;40.80;;;;;;5040807;28;20014;-63
2023/09/17 01:47:48;;;;;;;15.40;2.53;;;36.00;40.20;;;;;;5038516;28;20096;-64
2023/09/17 01:50:17;;;;;;;20.70;3.05;;;35.90;40.10;;;;;;5036346;28;20112;-66
2023/09/17 01:52:45;;;;;;;249.93;11.60;;;35.90;40.70;;;;;;5038626;28;20013;-64
2023/09/17 01:55:12;;;;;;;28.42;3.22;;;35.80;39.20;;;;;;5037946;28;20462;-62
2023/09/17 01:57:39;;;;;;;19.33;2.92;;;35.70;39.10;;;;;;5033803;28;20016;-61
2023/09/17 02:00:16;;;;;;;20.77;3.78;;;35.70;39.10;;;;;;5037745;28;20067;-60
2023/09/17 02:02:47;;;;;;;13.38;3.88;;;35.60;39.20;;;;;;5062351;28;20016;-60
2023/09/17 02:05:16;;;;;;;20.30;3.80;;;35.60;39.40;;;;;;5036865;28;20570;-64
2023/09/17 02:07:43;;;;;;;22.55;3.00;;;35.50;39.60;;;;;;5036775;28;20049;-62
2023/09/17 02:10:10;;;;;;;12.88;2.67;;;35.50;39.80;;;;;;5036724;28;20016;-61
2023/09/17 02:12:36;;;;;;;12.63;3.78;;;35.40;40.00;;;;;;5042615;28;20024;-65
2023/09/17 02:15:03;;;;;;;16.35;4.18;;;35.30;40.20;;;;;;5036749;28;20021;-64
2023/09/17 02:17:29;;;;;;;18.48;6.57;;;35.30;42.60;;;;;;5040098;28;20017;-64
2023/09/17 02:19:56;;;;;;;28.42;6.93;;;35.20;40.30;;;;;;5037300;28;20097;-63
2023/09/17 02:22:22;;;;;;;14.63;6.25;;;35.10;40.90;;;;;;5039272;28;20025;-66
2023/09/17 02:24:49;;;;;;;14.68;7.18;;;35.00;40.50;;;;;;5042512;28;20052;-63
2023/09/17 02:27:16;;;;;;;25.20;7.93;;;35.00;40.50;;;;;;5042185;28;20083;-63
2023/09/17 02:29:43;;;;;;;16.63;7.10;;;34.90;41.30;;;;;;5037015;28;20033;-65
2023/09/17 02:32:10;;;;;;;24.05;5.82;;;34.90;40.70;;;;;;5034559;28;20067;-63
2023/09/17 02:34:40;;;;;;;15.43;3.42;;;34.80;40.70;;;;;;5038298;28;20016;-65
2023/09/17 02:37:06;;;;;;;21.20;3.92;;;34.80;40.80;;;;;;5038913;28;20053;-64
2023/09/17 02:39:35;;;;;;;16.38;3.47;;;34.70;40.90;;;;;;5035251;28;20075;-64
2023/09/17 02:42:02;;;;;;;21.02;3.28;;;34.60;41.00;;;;;;5034386;28;20022;-64
2023/09/17 02:44:28;;;;;;;15.32;4.00;;;34.60;41.40;;;;;;5039748;28;20060;-62
2023/09/17 02:46:54;;;;;;;28.60;3.22;;;34.60;41.70;;;;;;5044179;28;20383;-62
2023/09/17 02:49:24;;;;;;;18.27;3.80;;;34.60;42.70;;;;;;5041835;28;20032;-64
2023/09/17 02:51:51;;;;;;;24.40;4.30;;;34.50;42.30;;;;;;5039140;28;20017;-64
2023/09/17 02:54:17;;;;;;;17.23;3.42;;;34.50;42.50;;;;;;5045216;28;20017;-65
2023/09/17 02:56:43;;;;;;;34.65;4.03;;;34.50;43.50;;;;;;5045939;28;20009;-65
2023/09/17 02:59:11;;;;;;;17.15;3.70;;;34.40;43.30;;;;;;5043260;28;20044;-64
2023/09/17 03:01:38;;;;;;;21.00;3.85;;;34.30;43.50;;;;;;5038960;28;20056;-65
2023/09/17 03:04:05;;;;;;;28.88;5.47;;;34.30;43.70;;;;;;5038094;28;20024;-61
2023/09/17 03:06:31;;;;;;;21.42;6.15;;;34.30;43.90;;;;;;5046196;28;20071;-64
2023/09/17 03:08:57;;;;;;;31.15;4.10;;;34.20;44.10;;;;;;5036757;28;20070;-62
2023/09/17 03:11:26;;;;;;;24.60;3.33;;;34.10;44.70;;;;;;5046651;28;20486;-64
2023/09/17 03:13:55;;;;;;;26.38;3.80;;;34.10;44.50;;;;;;5045047;28;20028;-63
2023/09/17 03:16:21;;;;;;;22.20;3.40;;;34.00;44.70;;;;;;5043697;28;20017;-64
2023/09/17 03:18:48;;;;;;;21.70;3.38;;;34.00;45.00;;;;;;5040417;28;20134;-65
2023/09/17 03:21:16;;;;;;;18.58;3.97;;;33.90;45.00;;;;;;5043881;28;20052;-63
2023/09/17 03:23:42;;;;;;;24.98;4.00;;;33.90;45.20;;;;;;5044849;28;20059;-65
2023/09/17 03:26:10;;;;;;;21.95;3.42;;;33.80;45.80;;;;;;5047081;28;20355;-64
2023/09/17 03:28:38;;;;;;;16.42;3.60;;;33.80;45.40;;;;;;5045609;28;20033;-62
2023/09/17 03:31:05;;;;;;;24.55;3.08;;;33.70;45.60;;;;;;5046812;28;20412;-63
2023/09/17 03:33:31;;;;;;;21.98;3.47;;;33.70;45.90;;;;;;5046893;28;20608;-70
2023/09/17 03:36:01;;;;;;;27.95;4.25;;;33.70;46.10;;;;;;5046912;28;20021;-70
2023/09/17 03:38:27;;;;;;;29.52;4.65;;;33.60;46.20;;;;;;5042896;28;20070;-72
2023/09/17 03:40:54;;;;;;;21.35;4.25;;;33.60;46.50;;;;;;5042519;28;20240;-72
2023/09/17 03:43:20;;;;;;;25.77;4.57;;;33.60;46.60;;;;;;5036447;28;20013;-74
2023/09/17 03:45:47;;;;;;;20.42;4.20;;;33.50;46.70;;;;;;5044045;28;21530;-75
2023/09/17 03:48:13;;;;;;;21.02;3.75;;;33.50;46.80;;;;;;5042063;28;20025;-71
2023/09/17 03:50:42;;;;;;;20.77;3.65;;;33.40;47.00;;;;;;5046806;28;20147;-69
2023/09/17 03:53:09;;;;;;;22.67;3.40;;;33.40;47.30;;;;;;5040136;28;20063;-74
2023/09/17 03:55:35;;;;;;;28.40;4.07;;;33.40;47.60;;;;;;5043034;28;20021;-74
2023/09/17 03:58:03;;;;;;;26.52;3.63;;;33.30;47.80;;;;;;5044888;28;20027;-67
2023/09/17 04:00:30;;;;;;;16.15;2.85;;;33.30;48.10;;;;;;5045548;28;20052;-70
2023/09/17 04:02:57;;;;;;;20.95;4.20;;;33.30;48.30;;;;;;5047203;28;20097;-69
2023/09/17 04:05:24;;;;;;;25.33;3.78;;;33.20;48.20;;;;;;5046904;28;20096;-70
2023/09/17 04:07:50;;;;;;;32.67;4.20;;;33.20;48.10;;;;;;5044410;28;20067;-72
2023/09/17 04:10:17;;;;;;;16.45;4.45;;;33.10;48.10;;;;;;5043524;28;20448;-72
2023/09/17 04:12:45;;;;;;;24.92;3.60;;;33.10;48.20;;;;;;5032404;28;20024;-73
2023/09/17 04:15:16;;;;;;;25.73;3.20;;;33.10;48.30;;;;;;5047044;28;20021;-71
2023/09/17 04:17:44;;;;;;;23.58;3.45;;;33.00;48.60;;;;;;5041621;28;20108;-71
2023/09/17 04:20:13;;;;;;;26.50;3.75;;;33.00;48.80;;;;;;5036830;28;20024;-71
2023/09/17 04:22:41;;;;;;;19.60;3.17;;;32.90;48.90;;;;;;5037890;28;20950;-69
2023/09/17 04:25:11;;;;;;;23.60;3.80;;;32.90;49.30;;;;;;5044663;28;20018;-72
2023/09/17 04:27:41;;;;;;;28.95;4.45;;;32.80;49.70;;;;;;5049532;28;20032;-71
2023/09/17 04:30:08;;;;;;;16.67;4.72;;;32.70;50.10;;;;;;5051454;28;20037;-68
2023/09/17 04:32:40;;;;;;;21.13;4.10;;;32.70;50.60;;;;;;5046304;28;20017;-70
2023/09/17 04:35:10;;;;;;;14.77;4.20;;;32.60;51.10;;;;;;5050642;28;20015;-72
2023/09/17 04:37:39;;;;;;;16.85;3.83;;;32.60;51.60;;;;;;5036024;28;20048;-69
2023/09/17 04:40:11;;;;;;;12.40;3.47;;;32.60;52.00;;;;;;5050385;28;20013;-72
2023/09/17 04:42:43;;;;;;;17.25;3.90;;;32.60;52.50;;;;;;5045466;28;20025;-70
2023/09/17 04:45:10;;;;;;;12.65;3.65;;;32.50;52.60;;;;;;5042171;28;20467;-71
2023/09/17 04:47:38;;;;;;;17.55;4.30;;;32.50;52.80;;;;;;5037805;28;20025;-72
2023/09/17 04:50:08;;;;;;;12.88;3.83;;;32.50;53.00;;;;;;5047878;28;20128;-72
2023/09/17 04:52:35;;;;;;;15.93;3.38;;;32.40;53.40;;;;;;5040573;28;20032;-74
2023/09/17 04:55:02;;;;;;;20.80;4.75;;;32.40;53.40;;;;;;5042061;28;20013;-73
2023/09/17 04:57:28;;;;;;;19.42;4.10;;;32.40;53.90;;;;;;5050568;28;20009;-73
2023/09/17 04:59:54;;;;;;;16.90;4.28;;;32.30;54.00;;;;;;5044495;28;20036;-73
2023/09/17 05:02:21;;;;;;;19.83;4.43;;;32.30;54.30;;;;;;5041100;28;20033;-73
2023/09/17 05:04:48;;;;;;;9.65;3.53;;;32.30;54.50;;;;;;5043907;28;20049;-74
2023/09/17 05:07:14;;;;;;;14.63;3.67;;;32.30;54.70;;;;;;5044770;28;20370;-74
2023/09/17 05:09:41;;;;;;;14.05;3.47;;;32.30;55.70;;;;;;5044242;28;20036;-75
2023/09/17 05:12:08;;;;;;;16.60;3.75;;;32.10;55.60;;;;;;5046525;28;20067;-72
2023/09/17 05:14:35;;;;;;;13.70;3.63;;;32.10;56.00;;;;;;5043787;28;20010;-72
2023/09/17 05:17:02;;;;;;;17.35;3.60;;;32.00;56.10;;;;;;5051637;28;20025;-70
2023/09/17 05:19:28;;;;;;;13.02;3.38;;;31.90;56.20;;;;;;5055962;28;20033;-76
2023/09/17 05:21:56;;;;;;;10.32;3.17;;;31.90;56.20;;;;;;5049474;28;21088;-72
2023/09/17 05:24:22;;;;;;;19.80;3.70;;;31.90;57.40;;;;;;5050163;28;20045;-70
2023/09/17 05:26:48;;;;;;;20.45;3.47;;;31.90;57.60;;;;;;5048609;28;20130;-70
2023/09/17 05:29:16;;;;;;;12.80;3.03;;;31.90;57.20;;;;;;5048270;28;20032;-69
2023/09/17 05:31:43;;;;;;;13.82;4.45;;;31.70;57.40;;;;;;5042602;28;20096;-71
2023/09/17 05:34:09;;;;;;;23.17;10.93;;;31.70;57.30;;;;;;5037933;28;20051;-69
2023/09/17 05:36:36;;;;;;;26.13;14.35;;;31.70;57.20;;;;;;5037988;28;20497;-68
2023/09/17 05:39:02;;;;;;;19.10;4.53;;;31.70;57.20;;;;;;5054822;28;20033;-67
2023/09/17 05:41:28;;;;;;;14.10;4.00;;;31.70;57.50;;;;;;5049437;28;20024;-70
2023/09/17 05:43:55;;;;;;;17.33;3.83;;;31.60;57.90;;;;;;5041091;28;20024;-67
2023/09/17 05:46:21;;;;;;;11.43;3.00;;;31.50;57.60;;;;;;5047914;28;20333;-70
2023/09/17 05:48:48;;;;;;;24.40;4.00;;;31.50;57.80;;;;;;5047279;28;20545;-70
2023/09/17 05:51:14;;;;;;;16.67;3.97;;;31.50;58.80;;;;;;5043893;28;20581;-69
2023/09/17 05:53:41;;;;;;;11.13;3.10;;;31.40;58.50;;;;;;5048616;28;20013;-69
2023/09/17 05:56:07;;;;;;;18.85;3.78;;;31.40;59.30;;;;;;5046542;28;20024;-67
2023/09/17 05:58:34;;;;;;;14.85;3.53;;;31.30;58.90;;;;;;5047165;28;20013;-69
2023/09/17 06:01:04;;;;;;;13.57;2.97;;;31.20;59.10;;;;;;5045095;28;20091;-69
2023/09/17 06:03:31;;;;;;;24.88;3.70;;;31.20;58.90;;;;;;5043454;28;20055;-69
2023/09/17 06:05:57;;;;;;;20.60;4.03;;;31.10;59.40;;;;;;5049462;28;20495;-69
2023/09/17 06:08:28;;;;;;;24.60;3.88;;;31.00;59.70;;;;;;5043662;28;20051;-71
2023/09/17 06:10:55;;;;;;;19.10;4.45;;;30.90;59.50;;;;;;5055974;28;20017;-69
2023/09/17 06:13:22;;;;;;;27.40;4.38;;;30.90;59.80;;;;;;5041966;28;20733;-68
2023/09/17 06:15:49;;;;;;;17.25;3.67;;;30.90;59.50;;;;;;5039533;28;20045;-69
2023/09/17 06:18:17;;;;;;;18.73;3.33;;;30.90;59.20;;;;;;5040225;28;20052;-70
2023/09/17 06:20:44;;;;;;;19.48;3.67;;;30.90;59.40;;;;;;5039944;28;20017;-74
2023/09/17 06:23:10;;;;;;;18.15;3.90;;;30.70;61.00;;;;;;5041114;28;20028;-71
2023/09/17 06:25:37;;;;;;;15.60;4.00;;;30.80;61.90;;;;;;5036853;28;20495;-72
2023/09/17 06:28:04;;;;;;;15.38;4.95;;;30.80;61.40;;;;;;5040246;28;20364;-69
2023/09/17 06:30:30;;;;;;;20.15;4.05;;;30.70;61.50;;;;;;5039280;28;20420;-70
2023/09/17 06:32:57;;;;;;;22.05;4.10;;;30.60;61.40;;;;;;5037495;28;20013;-69
2023/09/17 06:35:23;;;;;;;20.40;3.70;;;30.60;62.00;;;;;;5038613;28;20009;-68
2023/09/17 06:37:50;;;;;;;23.13;4.03;;;30.50;62.10;;;;;;5040943;28;20025;-68
2023/09/17 06:40:17;;;;;;;20.02;4.53;;;30.40;63.60;;;;;;5037752;28;20013;-70
2023/09/17 06:42:44;;;;;;;21.33;4.85;;;30.40;63.20;;;;;;5038202;28;20017;-71
2023/09/17 06:45:11;;;;;;;21.25;4.53;;;30.40;63.30;;;;;;5038782;28;20017;-70
2023/09/17 06:47:37;;;;;;;16.38;3.67;;;30.40;63.70;;;;;;5037312;28;20075;-69
2023/09/17 06:50:04;;;;;;;19.33;4.47;;;30.30;64.20;;;;;;5042852;28;20032;-69
2023/09/17 06:52:31;;;;;;;18.27;3.85;;;30.20;64.40;;;;;;5041526;28;20021;-71
2023/09/17 06:54:57;;;;;;;22.55;4.78;;;30.20;64.20;;;;;;5038425;28;20424;-70
2023/09/17 06:57:23;;;;;;;15.68;4.03;;;30.20;64.30;;;;;;5039618;28;20010;-69
2023/09/17 06:59:50;;;;;;;23.80;4.80;;;30.20;64.40;;;;;;5037345;28;20009;-69
2023/09/17 07:02:17;;;;;;;21.17;4.45;;;30.10;65.00;;;;;;5039050;28;20534;-71
2023/09/17 07:04:43;;;;;;;18.23;4.38;;;30.10;65.00;;;;;;5039533;28;20082;-67
2023/09/17 07:07:10;;;;;;;21.33;4.45;;;30.10;64.80;;;;;;5038823;28;20013;-71
2023/09/17 07:09:36;;;;;;;23.73;4.70;;;30.10;65.30;;;;;;5040067;28;21714;-70
2023/09/17 07:12:03;;;;;;;21.25;4.93;;;30.10;66.70;;;;;;5039425;28;20084;-69
2023/09/17 07:14:29;;;;;;;19.83;4.45;;;30.00;66.00;;;;;;5037709;28;20467;-69
2023/09/17 07:16:56;;;;;;;22.52;4.68;;;30.00;66.10;;;;;;5037571;28;20020;-68
2023/09/17 07:19:23;;;;;;;17.27;6.45;;;29.90;66.50;;;;;;5037754;28;20533;-72
2023/09/17 07:21:49;;;;;;;26.50;6.97;;;29.90;66.90;;;;;;5038624;28;20032;-71
2023/09/17 07:24:16;;;;;;;24.58;5.28;;;29.90;67.50;;;;;;5039476;28;20100;-68
2023/09/17 07:26:42;;;;;;;14.73;4.78;;;29.90;66.60;;;;;;5036048;28;20041;-70
2023/09/17 07:29:09;;;;;;;27.30;5.68;;;29.90;67.40;;;;;;5039093;28;20025;-70
2023/09/17 07:31:35;;;;;;;20.73;4.65;;;29.80;67.10;;;;;;5035821;28;20035;-71
2023/09/17 07:34:03;;;;;;;26.70;4.55;;;29.80;67.20;;;;;;5039706;28;20349;-71
2023/09/17 07:36:30;;;;;;;19.45;5.20;;;29.80;68.20;;;;;;5040398;28;20074;-70
2023/09/17 07:38:56;;;;;;;20.40;5.03;;;29.70;67.90;;;;;;5035981;28;20021;-71
2023/09/17 07:41:22;;;;;;;26.73;5.72;;;29.60;67.70;;;;;;5037196;28;20032;-69
2023/09/17 07:43:49;;;;;;;20.55;5.35;;;29.70;68.00;;;;;;5039793;28;20021;-68
2023/09/17 07:46:15;;;;;;;25.17;5.47;;;29.60;68.10;;;;;;5037341;28;20030;-70
2023/09/17 07:48:46;;;;;;;21.52;4.95;;;29.50;69.40;;;;;;5036609;28;20024;-69
2023/09/17 07:51:12;;;;;;;15.52;5.45;;;29.50;69.90;;;;;;5035184;28;20029;-72
2023/09/17 07:53:38;;;;;;;23.67;5.57;;;29.80;69.90;;;;;;5037543;28;20079;-73
2023/09/17 07:56:05;;;;;;;27.08;5.57;;;30.00;68.40;;;;;;5038243;28;20062;-72
2023/09/17 07:58:31;;;;;;;21.00;5.13;;;30.20;67.60;;;;;;5048408;28;20119;-72
2023/09/17 08:00:58;;;;;;;21.92;5.32;;;30.30;67.70;;;;;;5039796;28;20017;-72
2023/09/17 08:03:24;;;;;;;45.10;17.27;;;30.40;67.80;;;;;;5035409;28;20021;-73
2023/09/17 08:05:51;;;;;;;42.35;12.60;;;30.70;65.90;;;;;;5037157;28;20017;-73
2023/09/17 08:08:17;;;;;;;40.20;8.20;;;31.10;64.60;;;;;;5038216;28;20041;-73
2023/09/17 08:10:44;;;;;;;26.70;6.60;;;31.20;64.60;;;;;;5035354;28;20104;-72
2023/09/17 08:13:10;;;;;;;26.55;6.45;;;31.00;65.20;;;;;;5036747;28;20063;-74
2023/09/17 08:15:37;;;;;;;16.25;6.07;;;31.20;64.70;;;;;;5039313;28;20021;-73
2023/09/17 08:18:04;;;;;;;18.02;6.28;;;31.10;65.50;;;;;;5036664;28;20017;-72
2023/09/17 08:20:30;;;;;;;26.52;7.05;;;30.90;65.40;;;;;;5039540;28;20009;-72
2023/09/17 08:22:57;;;;;;;26.90;6.85;;;30.90;66.20;;;;;;5039575;28;20044;-70
2023/09/17 08:25:26;;;;;;;24.48;6.05;;;30.90;66.60;;;;;;5039425;28;20383;-73
2023/09/17 08:27:53;;;;;;;21.67;6.25;;;30.80;66.10;;;;;;5040004;28;20035;-72
2023/09/17 08:30:20;;;;;;;20.10;5.70;;;30.80;66.10;;;;;;5038345;28;20037;-72
2023/09/17 08:32:46;;;;;;;24.88;6.15;;;30.80;66.30;;;;;;5040132;28;20018;-73
2023/09/17 08:35:15;;;;;;;18.70;6.78;;;30.70;66.70;;;;;;5038394;28;20056;-72
2023/09/17 08:37:45;;;;;;;32.75;6.78;;;30.60;66.30;;;;;;5038715;28;20021;-72
2023/09/17 08:40:17;;;;;;;27.48;6.65;;;30.60;66.10;;;;;;5040203;28;20060;-73
2023/09/17 08:42:45;;;;;;;21.23;5.72;;;30.50;67.10;;;;;;5036704;28;20028;-70
2023/09/17 08:45:13;;;;;;;26.73;5.93;;;30.40;66.80;;;;;;5036422;28;20112;-73
2023/09/17 08:47:40;;;;;;;18.60;5.80;;;30.30;67.50;;;;;;5038407;28;20471;-72
2023/09/17 08:50:10;;;;;;;28.10;6.57;;;30.30;67.20;;;;;;5039860;28;20071;-71
2023/09/17 08:52:50;;;;;;;26.48;5.60;;;30.10;67.50;;;;;;5040778;28;20083;-71
2023/09/17 08:55:18;;;;;;;20.90;5.63;;;30.00;67.80;;;;;;5037724;28;20495;-74
2023/09/17 08:57:49;;;;;;;22.10;5.72;;;29.90;68.00;;;;;;5035494;28;20662;-72
2023/09/17 09:00:19;;;;;;;22.83;5.32;;;29.80;68.40;;;;;;5037434;28;20068;-73
2023/09/17 09:03:01;;;;;;;19.45;4.97;;;29.60;68.60;;;;;;5035887;28;20084;-72
2023/09/17 09:05:28;;;;;;;14.45;4.85;;;29.40;69.30;;;;;;5035300;28;20108;-71
2023/09/17 09:07:56;;;;;;;17.60;4.90;;;29.50;69.70;;;;;;5037337;28;20021;-71
2023/09/17 09:10:24;;;;;;;18.75;5.40;;;29.50;69.30;;;;;;5038279;28;20094;-71
2023/09/17 09:12:51;;;;;;;27.85;5.53;;;29.30;69.50;;;;;;5042260;28;20036;-72
2023/09/17 09:15:18;;;;;;;21.90;5.07;;;29.30;69.50;;;;;;5039884;28;20370;-73
2023/09/17 09:17:44;;;;;;;12.70;4.60;;;29.20;70.10;;;;;;5040489;28;20009;-74
2023/09/17 09:20:11;;;;;;;14.75;4.57;;;29.20;69.10;;;;;;5041439;28;20542;-72
2023/09/17 09:22:40;;;;;;;16.58;4.68;;;29.20;70.00;;;;;;5039976;28;20455;-71
2023/09/17 09:25:09;;;;;;;15.93;4.63;;;29.10;69.40;;;;;;5040334;28;20025;-73
2023/09/17 09:27:38;;;;;;;17.80;4.32;;;29.10;70.00;;;;;;5041204;28;20018;-71
2023/09/17 09:30:09;;;;;;;14.63;4.25;;;29.10;70.30;;;;;;5043616;28;20064;-71
2023/09/17 09:32:37;;;;;;;20.98;4.57;;;29.00;69.70;;;;;;5047925;28;20415;-73
2023/09/17 09:35:05;;;;;;;9.70;3.90;;;28.90;70.40;;;;;;5039490;28;20059;-72
2023/09/17 09:37:33;;;;;;;18.45;4.35;;;28.80;70.60;;;;;;5039494;28;20017;-72
2023/09/17 09:40:00;;;;;;;16.77;4.43;;;28.80;71.60;;;;;;5040415;28;20018;-71
2023/09/17 09:42:26;;;;;;;17.98;4.40;;;28.70;71.50;;;;;;5043113;28;20479;-73
2023/09/17 09:44:53;;;;;;;14.05;3.65;;;28.60;71.70;;;;;;5041860;28;20026;-70
2023/09/17 09:47:22;;;;;;;13.57;3.85;;;28.60;72.60;;;;;;5038154;28;20021;-72
2023/09/17 09:49:48;;;;;;;18.77;4.15;;;28.60;72.70;;;;;;5036840;28;20032;-72
2023/09/17 09:52:17;;;;;;;10.90;3.58;;;28.30;73.20;;;;;;5043914;28;20013;-72
2023/09/17 09:54:44;;;;;;;12.50;3.58;;;28.40;73.90;;;;;;5038423;28;20472;-73
2023/09/17 09:57:15;;;;;;;15.32;3.58;;;28.30;74.20;;;;;;5056945;28;20012;-72
2023/09/17 09:59:45;;;;;;;16.75;4.30;;;28.30;74.60;;;;;;5044117;28;20138;-72
2023/09/17 10:02:13;;;;;;;15.20;4.70;;;28.30;74.60;;;;;;5038348;28;20032;-72
2023/09/17 10:04:40;;;;;;;14.50;4.15;;;28.30;73.90;;;;;;5037523;28;20021;-72
2023/09/17 10:07:10;;;;;;;19.48;4.60;;;28.20;73.90;;;;;;5042221;28;20021;-72
2023/09/17 10:09:36;;;;;;;18.38;4.53;;;28.10;74.00;;;;;;5041804;28;20041;-72
2023/09/17 10:12:04;;;;;;;13.60;4.10;;;28.00;74.00;;;;;;5040362;28;20009;-72
2023/09/17 10:14:38;;;;;;;10.07;4.13;;;28.10;73.70;;;;;;5041145;28;20014;-73
2023/09/17 10:17:10;;;;;;;16.27;3.95;;;28.20;73.70;;;;;;5054877;28;20712;-72
2023/09/17 10:19:38;;;;;;;28.55;4.70;;;28.30;73.40;;;;;;5042834;28;20025;-73
2023/09/17 10:22:09;;;;;;;16.45;4.05;;;28.40;73.60;;;;;;5036597;28;20017;-73
2023/09/17 10:24:39;;;;;;;23.58;3.95;;;28.40;73.40;;;;;;5040745;28;21360;-71
2023/09/17 10:27:07;;;;;;;19.42;3.80;;;28.40;73.40;;;;;;5039778;28;20048;-73
2023/09/17 10:29:36;;;;;;;13.90;3.90;;;28.20;73.60;;;;;;5042196;28;20052;-72
2023/09/17 10:32:04;;;;;;;15.93;3.90;;;28.10;73.50;;;;;;5039521;28;20104;-73
2023/09/17 10:34:35;;;;;;;13.85;3.72;;;28.00;74.10;;;;;;5036255;28;20118;-72
2023/09/17 10:37:03;;;;;;;11.98;3.80;;;27.90;75.10;;;;;;5042861;28;20076;-73
2023/09/17 10:39:31;;;;;;;15.13;3.70;;;27.80;74.70;;;;;;5038055;28;20153;-73
2023/09/17 10:42:03;;;;;;;15.13;3.88;;;27.70;74.40;;;;;;5035539;28;20021;-71
2023/09/17 10:44:30;;;;;;;24.27;4.00;;;27.80;75.30;;;;;;5037617;28;20043;-72
2023/09/17 10:47:00;;;;;;;12.32;3.40;;;27.70;74.10;;;;;;5038897;28;20413;-71
2023/09/17 10:49:31;;;;;;;15.93;3.75;;;27.40;74.20;;;;;;5039528;28;20067;-71
2023/09/17 10:51:58;;;;;;;18.15;3.75;;;27.40;74.00;;;;;;5039889;28;20047;-73
2023/09/17 10:54:24;;;;;;;12.77;4.07;;;27.40;73.00;;;;;;5041247;28;20097;-74
2023/09/17 10:56:51;;;;;;;16.48;3.95;;;27.50;72.00;;;;;;5054287;28;20040;-71
2023/09/17 10:59:19;;;;;;;21.88;4.13;;;27.60;71.40;;;;;;5039337;28;20036;-73
2023/09/17 11:01:47;;;;;;;20.00;4.25;;;27.60;70.60;;;;;;5041555;28;20047;-73
2023/09/17 11:04:18;;;;;;;19.95;4.53;;;27.70;70.50;;;;;;5037864;28;20567;-71
2023/09/17 11:06:48;;;;;;;12.35;3.70;;;27.40;70.70;;;;;;5039683;28;20055;-72
2023/09/17 11:09:15;;;;;;;18.25;3.70;;;27.40;71.40;;;;;;5042221;28;20112;-71
2023/09/17 11:11:41;;;;;;;13.48;3.17;;;27.30;71.60;;;;;;5037039;28;20054;-71
2023/09/17 11:14:10;;;;;;;11.75;3.50;;;27.30;72.20;;;;;;5043346;28;20050;-71
2023/09/17 11:16:37;;;;;;;18.48;3.50;;;27.40;73.40;;;;;;5037870;28;20043;-73
2023/09/17 11:19:16;;;;;;;15.65;3.60;;;27.50;73.20;;;;;;5041814;28;20543;-72
2023/09/17 11:22:07;;;;;;;11.65;3.17;;;27.40;73.40;;;;;;5038682;28;20049;-72
2023/09/17 11:24:34;;;;;;;8.32;3.55;;;27.40;72.30;;;;;;5038984;28;20043;-72
2023/09/17 11:27:01;;;;;;;12.13;3.40;;;27.40;71.70;;;;;;5039733;28;20098;-72
2023/09/17 11:29:42;;;;;;;14.65;3.88;;;27.50;71.10;;;;;;5074842;23;20117;-61
2023/09/17 11:32:09;;;;;;;14.80;3.50;;;27.50;69.70;;;;;;5077626;28;20012;-61
2023/09/17 11:34:42;;;;;;;16.00;4.00;;;27.50;69.90;;;;;;5073967;28;20537;-61
2023/09/17 11:37:09;;;;;;;12.82;2.97;;;27.60;69.50;;;;;;5078548;28;20051;-61
2023/09/17 11:39:36;;;;;;;11.10;3.38;;;27.50;69.30;;;;;;5074138;28;20051;-61
2023/09/17 11:42:06;;;;;;;13.27;3.60;;;27.50;69.20;;;;;;5081161;28;20047;-59
2023/09/17 11:44:34;;;;;;;15.35;3.72;;;27.40;69.10;;;;;;5078648;28;20386;-60
2023/09/17 11:47:02;;;;;;;9.60;3.50;;;27.20;69.20;;;;;;5080246;28;20046;-61
2023/09/17 11:49:29;;;;;;;11.20;3.78;;;27.10;70.50;;;;;;5081797;28;20035;-61
2023/09/17 11:51:57;;;;;;;12.52;3.20;;;27.20;69.00;;;;;;5081223;28;20042;-61
2023/09/17 11:54:40;;;;;;;19.17;4.07;;;27.20;69.40;;;;;;5081713;28;20430;-63
2023/09/17 11:57:08;;;;;;;14.93;3.80;;;27.10;67.70;;;;;;5085962;28;20070;-61
2023/09/17 11:59:38;;;;;;;17.50;4.25;;;27.00;68.20;;;;;;5080488;28;20054;-61
2023/09/17 12:02:08;;;;;;;21.73;4.28;;;27.10;68.40;;;;;;5081892;28;20028;-61
2023/09/17 12:04:36;;;;;;;22.10;4.60;;;27.10;67.70;;;;;;5080380;28;20046;-62
2023/09/17 12:07:09;;;;;;;49.47;5.22;;;27.10;68.10;;;;;;5082024;28;20043;-61
2023/09/17 12:12:12;;;;;;;25.08;4.10;;;27.20;68.20;;;;;;5084144;28;20050;-60
2023/09/17 12:14:39;;;;;;;19.33;4.30;;;27.10;68.40;;;;;;5080141;28;20088;-61
2023/09/17 12:17:06;;;;;;;15.55;4.00;;;27.10;69.60;;;;;;5079926;28;20064;-61
2023/09/17 12:19:32;;;;;;;16.17;3.83;;;26.80;69.70;;;;;;5081233;28;20384;-61
2023/09/17 12:22:00;;;;;;;13.60;3.65;;;26.70;70.20;;;;;;5079104;28;20051;-60
2023/09/17 12:24:41;;;;;;;14.70;4.07;;;26.70;69.70;;;;;;5082249;28;20050;-60
2023/09/17 12:29:58;;;;;;;13.40;3.92;;;26.80;70.90;;;;;;5079027;28;20123;-61
2023/09/17 12:32:27;;;;;;;21.45;3.72;;;26.70;71.00;;;;;;5081292;28;20041;-60
2023/09/17 12:34:56;;;;;;;21.63;4.53;;;26.70;70.20;;;;;;5081154;28;20052;-60
2023/09/17 12:37:24;;;;;;;18.90;4.10;;;26.70;69.60;;;;;;5082178;28;20074;-60
2023/09/17 12:39:52;;;;;;;16.27;4.18;;;26.70;69.30;;;;;;5081340;28;20042;-60
2023/09/17 12:42:20;;;;;;;17.92;4.22;;;26.70;69.50;;;;;;5082786;28;20154;-60
2023/09/17 12:44:47;;;;;;;18.73;3.53;;;26.70;69.80;;;;;;5081160;28;20615;-58
2023/09/17 12:47:14;;;;;;;12.68;3.42;;;26.70;70.10;;;;;;5087826;28;20058;-61